sensor_id;sensor_type;location;lat;lon;timestamp;P1;durP1;ratioP1;P2;durP2;ratioP2
55989;SDS011;41875;55.806;38.082;2023-12-20T00:01:24;1.65;;;0.90;;
55989;SDS011;41875;55.806;38.082;2023-12-20T00:04:29;2.15;;;1.10;;
55989;SDS011;41875;55.806;38.082;2023-12-20T00:07:34;2.90;;;0.88;;
55989;SDS011;41875;55.806;38.082;2023-12-20T00:10:38;2.50;;;0.80;;
55989;SDS011;41875;55.806;38.082;2023-12-20T00:13:43;2.13;;;0.88;;
55989;SDS011;41875;55.806;38.082;2023-12-20T00:16:54;1.55;;;1.02;;
55989;SDS011;41875;55.806;38.082;2023-12-20T00:23:41;2.08;;;0.82;;
55989;SDS011;41875;55.806;38.082;2023-12-20T00:26:50;2.80;;;1.02;;
55989;SDS011;41875;55.806;38.082;2023-12-20T00:29:55;2.75;;;1.23;;
55989;SDS011;41875;55.806;38.082;2023-12-20T00:33:01;2.50;;;1.25;;
55989;SDS011;41875;55.806;38.082;2023-12-20T00:36:05;2.97;;;1.55;;
55989;SDS011;41875;55.806;38.082;2023-12-20T00:39:16;2.10;;;1.25;;
55989;SDS011;41875;55.806;38.082;2023-12-20T00:42:21;3.22;;;1.33;;
55989;SDS011;41875;55.806;38.082;2023-12-20T00:45:25;6.07;;;1.55;;
55989;SDS011;41875;55.806;38.082;2023-12-20T00:48:31;2.17;;;1.40;;
55989;SDS011;41875;55.806;38.082;2023-12-20T00:51:37;2.47;;;1.52;;
55989;SDS011;41875;55.806;38.082;2023-12-20T00:54:45;4.80;;;1.92;;
55989;SDS011;41875;55.806;38.082;2023-12-20T00:57:50;2.55;;;1.40;;
55989;SDS011;41875;55.806;38.082;2023-12-20T01:00:55;4.70;;;1.48;;
55989;SDS011;41875;55.806;38.082;2023-12-20T01:04:02;3.13;;;1.45;;
55989;SDS011;41875;55.806;38.082;2023-12-20T01:07:07;3.80;;;1.30;;
55989;SDS011;41875;55.806;38.082;2023-12-20T01:10:13;2.72;;;1.20;;
55989;SDS011;41875;55.806;38.082;2023-12-20T01:13:19;2.25;;;1.42;;
55989;SDS011;41875;55.806;38.082;2023-12-20T01:16:28;2.85;;;1.40;;
55989;SDS011;41875;55.806;38.082;2023-12-20T01:19:33;1.55;;;1.23;;
55989;SDS011;41875;55.806;38.082;2023-12-20T01:22:37;3.42;;;1.38;;
55989;SDS011;41875;55.806;38.082;2023-12-20T01:25:44;3.75;;;1.40;;
55989;SDS011;41875;55.806;38.082;2023-12-20T01:28:49;4.07;;;1.60;;
55989;SDS011;41875;55.806;38.082;2023-12-20T01:31:53;3.15;;;1.63;;
55989;SDS011;41875;55.806;38.082;2023-12-20T01:34:57;4.28;;;1.80;;
55989;SDS011;41875;55.806;38.082;2023-12-20T01:38:05;3.75;;;1.80;;
55989;SDS011;41875;55.806;38.082;2023-12-20T01:45:19;4.35;;;1.80;;
55989;SDS011;41875;55.806;38.082;2023-12-20T01:48:28;4.57;;;1.85;;
55989;SDS011;41875;55.806;38.082;2023-12-20T01:51:35;6.15;;;2.35;;
55989;SDS011;41875;55.806;38.082;2023-12-20T01:54:45;5.20;;;2.40;;
55989;SDS011;41875;55.806;38.082;2023-12-20T01:58:12;4.43;;;1.98;;
55989;SDS011;41875;55.806;38.082;2023-12-20T02:01:35;3.88;;;2.20;;
55989;SDS011;41875;55.806;38.082;2023-12-20T02:04:40;4.10;;;1.88;;
55989;SDS011;41875;55.806;38.082;2023-12-20T02:08:04;5.28;;;2.05;;
55989;SDS011;41875;55.806;38.082;2023-12-20T02:11:22;5.32;;;2.13;;
55989;SDS011;41875;55.806;38.082;2023-12-20T02:14:33;5.93;;;2.20;;
55989;SDS011;41875;55.806;38.082;2023-12-20T02:17:45;4.20;;;1.77;;
55989;SDS011;41875;55.806;38.082;2023-12-20T02:21:18;5.80;;;2.28;;
55989;SDS011;41875;55.806;38.082;2023-12-20T02:24:42;4.43;;;2.15;;
55989;SDS011;41875;55.806;38.082;2023-12-20T02:28:01;3.78;;;2.00;;
55989;SDS011;41875;55.806;38.082;2023-12-20T02:31:38;4.72;;;1.90;;
55989;SDS011;41875;55.806;38.082;2023-12-20T02:35:09;4.55;;;2.10;;
55989;SDS011;41875;55.806;38.082;2023-12-20T02:38:15;5.45;;;2.10;;
55989;SDS011;41875;55.806;38.082;2023-12-20T02:41:29;6.60;;;2.28;;
55989;SDS011;41875;55.806;38.082;2023-12-20T02:44:48;3.30;;;1.90;;
55989;SDS011;41875;55.806;38.082;2023-12-20T02:48:12;3.10;;;1.73;;
55989;SDS011;41875;55.806;38.082;2023-12-20T02:51:18;3.40;;;1.80;;
55989;SDS011;41875;55.806;38.082;2023-12-20T02:54:25;4.40;;;1.80;;
55989;SDS011;41875;55.806;38.082;2023-12-20T02:57:46;4.68;;;1.88;;
55989;SDS011;41875;55.806;38.082;2023-12-20T03:00:52;6.55;;;1.92;;
55989;SDS011;41875;55.806;38.082;2023-12-20T03:03:56;4.40;;;1.65;;
55989;SDS011;41875;55.806;38.082;2023-12-20T03:07:02;2.95;;;1.60;;
55989;SDS011;41875;55.806;38.082;2023-12-20T03:10:14;3.60;;;1.65;;
55989;SDS011;41875;55.806;38.082;2023-12-20T03:13:32;4.45;;;1.58;;
55989;SDS011;41875;55.806;38.082;2023-12-20T03:16:36;4.25;;;1.48;;
55989;SDS011;41875;55.806;38.082;2023-12-20T03:19:51;4.97;;;2.75;;
55989;SDS011;41875;55.806;38.082;2023-12-20T03:23:04;3.00;;;1.50;;
55989;SDS011;41875;55.806;38.082;2023-12-20T03:26:17;6.68;;;1.90;;
55989;SDS011;41875;55.806;38.082;2023-12-20T03:29:43;2.72;;;1.50;;
55989;SDS011;41875;55.806;38.082;2023-12-20T03:32:53;3.22;;;1.33;;
55989;SDS011;41875;55.806;38.082;2023-12-20T03:36:03;3.90;;;1.90;;
55989;SDS011;41875;55.806;38.082;2023-12-20T03:39:10;4.65;;;1.67;;
55989;SDS011;41875;55.806;38.082;2023-12-20T03:42:15;6.07;;;1.67;;
55989;SDS011;41875;55.806;38.082;2023-12-20T03:45:23;2.88;;;1.50;;
55989;SDS011;41875;55.806;38.082;2023-12-20T03:48:31;2.33;;;1.38;;
55989;SDS011;41875;55.806;38.082;2023-12-20T03:51:54;5.43;;;1.60;;
55989;SDS011;41875;55.806;38.082;2023-12-20T03:55:18;4.25;;;1.70;;
55989;SDS011;41875;55.806;38.082;2023-12-20T03:58:37;3.83;;;2.00;;
55989;SDS011;41875;55.806;38.082;2023-12-20T04:02:13;5.80;;;1.85;;
55989;SDS011;41875;55.806;38.082;2023-12-20T04:05:20;7.35;;;2.85;;
55989;SDS011;41875;55.806;38.082;2023-12-20T04:11:35;7.80;;;2.40;;
55989;SDS011;41875;55.806;38.082;2023-12-20T04:14:44;6.63;;;2.75;;
55989;SDS011;41875;55.806;38.082;2023-12-20T04:17:51;4.90;;;2.65;;
55989;SDS011;41875;55.806;38.082;2023-12-20T04:20:57;5.65;;;2.55;;
55989;SDS011;41875;55.806;38.082;2023-12-20T04:24:01;7.05;;;3.10;;
55989;SDS011;41875;55.806;38.082;2023-12-20T04:27:07;6.57;;;3.08;;
55989;SDS011;41875;55.806;38.082;2023-12-20T04:30:12;6.18;;;3.30;;
55989;SDS011;41875;55.806;38.082;2023-12-20T04:33:25;6.45;;;3.20;;
55989;SDS011;41875;55.806;38.082;2023-12-20T04:36:29;6.80;;;3.28;;
55989;SDS011;41875;55.806;38.082;2023-12-20T04:39:35;6.38;;;2.83;;
55989;SDS011;41875;55.806;38.082;2023-12-20T04:42:40;5.82;;;3.17;;
55989;SDS011;41875;55.806;38.082;2023-12-20T04:45:53;7.45;;;3.17;;
55989;SDS011;41875;55.806;38.082;2023-12-20T04:49:00;5.63;;;3.00;;
55989;SDS011;41875;55.806;38.082;2023-12-20T04:52:14;7.10;;;3.30;;
55989;SDS011;41875;55.806;38.082;2023-12-20T04:55:18;8.23;;;3.38;;
55989;SDS011;41875;55.806;38.082;2023-12-20T04:58:36;10.63;;;3.78;;
55989;SDS011;41875;55.806;38.082;2023-12-20T05:01:41;9.35;;;4.07;;
55989;SDS011;41875;55.806;38.082;2023-12-20T05:04:47;7.63;;;3.45;;
55989;SDS011;41875;55.806;38.082;2023-12-20T05:07:56;10.85;;;3.78;;
55989;SDS011;41875;55.806;38.082;2023-12-20T05:11:01;6.32;;;3.63;;
55989;SDS011;41875;55.806;38.082;2023-12-20T05:14:06;8.95;;;3.70;;
55989;SDS011;41875;55.806;38.082;2023-12-20T05:17:10;7.68;;;3.60;;
55989;SDS011;41875;55.806;38.082;2023-12-20T05:20:17;15.23;;;4.30;;
55989;SDS011;41875;55.806;38.082;2023-12-20T05:23:21;9.05;;;4.03;;
55989;SDS011;41875;55.806;38.082;2023-12-20T05:26:26;7.57;;;3.90;;
55989;SDS011;41875;55.806;38.082;2023-12-20T05:29:31;7.35;;;3.65;;
55989;SDS011;41875;55.806;38.082;2023-12-20T05:32:36;6.20;;;3.33;;
55989;SDS011;41875;55.806;38.082;2023-12-20T05:35:46;7.07;;;3.35;;
55989;SDS011;41875;55.806;38.082;2023-12-20T05:38:52;6.78;;;3.50;;
55989;SDS011;41875;55.806;38.082;2023-12-20T05:42:00;6.88;;;3.33;;
55989;SDS011;41875;55.806;38.082;2023-12-20T05:45:08;7.97;;;3.30;;
55989;SDS011;41875;55.806;38.082;2023-12-20T05:48:26;8.10;;;3.33;;
55989;SDS011;41875;55.806;38.082;2023-12-20T05:51:34;10.40;;;3.38;;
55989;SDS011;41875;55.806;38.082;2023-12-20T05:54:40;6.97;;;3.35;;
55989;SDS011;41875;55.806;38.082;2023-12-20T05:57:44;6.88;;;3.13;;
55989;SDS011;41875;55.806;38.082;2023-12-20T06:01:03;6.93;;;3.50;;
55989;SDS011;41875;55.806;38.082;2023-12-20T06:04:11;6.35;;;3.08;;
55989;SDS011;41875;55.806;38.082;2023-12-20T06:07:40;8.27;;;3.60;;
55989;SDS011;41875;55.806;38.082;2023-12-20T06:10:45;5.88;;;2.97;;
55989;SDS011;41875;55.806;38.082;2023-12-20T06:13:50;6.32;;;3.00;;
55989;SDS011;41875;55.806;38.082;2023-12-20T06:16:55;8.32;;;3.22;;
55989;SDS011;41875;55.806;38.082;2023-12-20T06:20:00;9.13;;;2.70;;
55989;SDS011;41875;55.806;38.082;2023-12-20T06:27:07;6.85;;;2.88;;
55989;SDS011;41875;55.806;38.082;2023-12-20T06:30:12;8.02;;;2.70;;
55989;SDS011;41875;55.806;38.082;2023-12-20T06:33:20;6.18;;;2.88;;
55989;SDS011;41875;55.806;38.082;2023-12-20T06:36:31;6.97;;;3.08;;
55989;SDS011;41875;55.806;38.082;2023-12-20T06:47:10;5.40;;;2.78;;
55989;SDS011;41875;55.806;38.082;2023-12-20T06:50:24;8.25;;;2.70;;
55989;SDS011;41875;55.806;38.082;2023-12-20T06:53:44;8.43;;;2.83;;
55989;SDS011;41875;55.806;38.082;2023-12-20T06:56:53;6.30;;;2.35;;
55989;SDS011;41875;55.806;38.082;2023-12-20T07:00:00;6.25;;;2.80;;
55989;SDS011;41875;55.806;38.082;2023-12-20T07:03:10;4.15;;;2.28;;
55989;SDS011;41875;55.806;38.082;2023-12-20T07:13:00;6.45;;;2.75;;
55989;SDS011;41875;55.806;38.082;2023-12-20T07:16:20;6.85;;;2.88;;
55989;SDS011;41875;55.806;38.082;2023-12-20T07:19:27;4.85;;;2.78;;
55989;SDS011;41875;55.806;38.082;2023-12-20T07:22:47;5.00;;;2.78;;
55989;SDS011;41875;55.806;38.082;2023-12-20T07:25:56;7.63;;;3.40;;
55989;SDS011;41875;55.806;38.082;2023-12-20T07:29:06;6.95;;;3.00;;
55989;SDS011;41875;55.806;38.082;2023-12-20T07:36:01;5.28;;;2.80;;
55989;SDS011;41875;55.806;38.082;2023-12-20T07:39:06;8.10;;;3.13;;
55989;SDS011;41875;55.806;38.082;2023-12-20T07:42:13;8.83;;;2.73;;
55989;SDS011;41875;55.806;38.082;2023-12-20T07:45:44;11.35;;;2.90;;
55989;SDS011;41875;55.806;38.082;2023-12-20T07:49:06;5.30;;;2.55;;
55989;SDS011;41875;55.806;38.082;2023-12-20T07:52:12;7.72;;;2.53;;
55989;SDS011;41875;55.806;38.082;2023-12-20T07:55:21;6.88;;;2.80;;
55989;SDS011;41875;55.806;38.082;2023-12-20T07:58:42;6.53;;;2.78;;
55989;SDS011;41875;55.806;38.082;2023-12-20T08:01:54;8.70;;;2.85;;
55989;SDS011;41875;55.806;38.082;2023-12-20T08:09:10;6.13;;;2.70;;
55989;SDS011;41875;55.806;38.082;2023-12-20T08:12:15;6.28;;;2.30;;
55989;SDS011;41875;55.806;38.082;2023-12-20T08:15:21;8.18;;;2.83;;
55989;SDS011;41875;55.806;38.082;2023-12-20T08:18:39;8.30;;;2.70;;
55989;SDS011;41875;55.806;38.082;2023-12-20T08:22:12;6.60;;;2.28;;
55989;SDS011;41875;55.806;38.082;2023-12-20T08:25:18;8.32;;;2.88;;
55989;SDS011;41875;55.806;38.082;2023-12-20T08:28:26;4.47;;;2.42;;
55989;SDS011;41875;55.806;38.082;2023-12-20T08:31:34;5.60;;;2.45;;
55989;SDS011;41875;55.806;38.082;2023-12-20T08:34:54;7.78;;;2.65;;
55989;SDS011;41875;55.806;38.082;2023-12-20T08:38:32;8.30;;;2.83;;
55989;SDS011;41875;55.806;38.082;2023-12-20T08:41:50;6.13;;;2.65;;
55989;SDS011;41875;55.806;38.082;2023-12-20T08:45:23;8.68;;;2.80;;
55989;SDS011;41875;55.806;38.082;2023-12-20T08:48:41;6.18;;;2.53;;
55989;SDS011;41875;55.806;38.082;2023-12-20T08:51:52;6.93;;;2.72;;
55989;SDS011;41875;55.806;38.082;2023-12-20T09:10:51;5.20;;;2.30;;
55989;SDS011;41875;55.806;38.082;2023-12-20T09:13:58;5.50;;;2.40;;
55989;SDS011;41875;55.806;38.082;2023-12-20T09:17:09;9.52;;;2.50;;
55989;SDS011;41875;55.806;38.082;2023-12-20T09:20:58;4.85;;;2.58;;
55989;SDS011;41875;55.806;38.082;2023-12-20T09:28:56;6.47;;;2.42;;
55989;SDS011;41875;55.806;38.082;2023-12-20T09:32:19;7.40;;;2.28;;
55989;SDS011;41875;55.806;38.082;2023-12-20T09:35:24;8.85;;;2.78;;
55989;SDS011;41875;55.806;38.082;2023-12-20T09:38:30;7.95;;;3.00;;
55989;SDS011;41875;55.806;38.082;2023-12-20T09:41:36;7.57;;;3.08;;
55989;SDS011;41875;55.806;38.082;2023-12-20T09:44:50;7.75;;;2.90;;
55989;SDS011;41875;55.806;38.082;2023-12-20T09:51:37;6.63;;;2.50;;
55989;SDS011;41875;55.806;38.082;2023-12-20T09:54:45;6.60;;;3.40;;
55989;SDS011;41875;55.806;38.082;2023-12-20T09:57:53;6.38;;;2.90;;
55989;SDS011;41875;55.806;38.082;2023-12-20T10:01:01;5.95;;;3.15;;
55989;SDS011;41875;55.806;38.082;2023-12-20T10:04:08;7.07;;;2.90;;
55989;SDS011;41875;55.806;38.082;2023-12-20T10:07:30;5.88;;;2.58;;
55989;SDS011;41875;55.806;38.082;2023-12-20T10:10:36;6.28;;;2.92;;
55989;SDS011;41875;55.806;38.082;2023-12-20T10:13:49;6.82;;;3.05;;
55989;SDS011;41875;55.806;38.082;2023-12-20T10:17:06;6.65;;;2.85;;
55989;SDS011;41875;55.806;38.082;2023-12-20T10:20:27;6.32;;;2.95;;
55989;SDS011;41875;55.806;38.082;2023-12-20T10:23:38;5.60;;;2.63;;
55989;SDS011;41875;55.806;38.082;2023-12-20T10:26:47;5.68;;;2.70;;
55989;SDS011;41875;55.806;38.082;2023-12-20T10:30:27;7.50;;;2.72;;
55989;SDS011;41875;55.806;38.082;2023-12-20T10:33:36;5.85;;;2.58;;
55989;SDS011;41875;55.806;38.082;2023-12-20T10:36:46;9.93;;;3.08;;
55989;SDS011;41875;55.806;38.082;2023-12-20T10:40:00;6.72;;;3.05;;
55989;SDS011;41875;55.806;38.082;2023-12-20T10:43:09;7.40;;;2.92;;
55989;SDS011;41875;55.806;38.082;2023-12-20T10:46:15;9.18;;;3.58;;
55989;SDS011;41875;55.806;38.082;2023-12-20T10:49:27;5.38;;;2.83;;
55989;SDS011;41875;55.806;38.082;2023-12-20T10:52:45;7.03;;;2.83;;
55989;SDS011;41875;55.806;38.082;2023-12-20T10:55:52;6.40;;;3.08;;
55989;SDS011;41875;55.806;38.082;2023-12-20T10:59:05;5.22;;;2.80;;
55989;SDS011;41875;55.806;38.082;2023-12-20T11:02:33;5.05;;;2.60;;
55989;SDS011;41875;55.806;38.082;2023-12-20T11:13:48;6.32;;;3.28;;
55989;SDS011;41875;55.806;38.082;2023-12-20T11:17:05;5.63;;;3.33;;
55989;SDS011;41875;55.806;38.082;2023-12-20T11:20:41;7.60;;;3.05;;
55989;SDS011;41875;55.806;38.082;2023-12-20T11:24:00;5.72;;;3.00;;
55989;SDS011;41875;55.806;38.082;2023-12-20T11:27:09;6.00;;;3.10;;
55989;SDS011;41875;55.806;38.082;2023-12-20T11:30:13;5.18;;;2.58;;
55989;SDS011;41875;55.806;38.082;2023-12-20T11:33:35;5.70;;;2.67;;
55989;SDS011;41875;55.806;38.082;2023-12-20T11:37:09;5.97;;;2.63;;
55989;SDS011;41875;55.806;38.082;2023-12-20T11:40:22;7.78;;;3.40;;
55989;SDS011;41875;55.806;38.082;2023-12-20T11:55:43;5.00;;;2.20;;
55989;SDS011;41875;55.806;38.082;2023-12-20T11:59:10;6.35;;;2.28;;
55989;SDS011;41875;55.806;38.082;2023-12-20T12:02:45;5.90;;;2.40;;
55989;SDS011;41875;55.806;38.082;2023-12-20T12:06:03;3.85;;;1.90;;
55989;SDS011;41875;55.806;38.082;2023-12-20T12:09:36;4.03;;;2.10;;
55989;SDS011;41875;55.806;38.082;2023-12-20T12:12:56;4.10;;;2.10;;
55989;SDS011;41875;55.806;38.082;2023-12-20T12:16:07;5.22;;;2.22;;
55989;SDS011;41875;55.806;38.082;2023-12-20T12:19:19;4.70;;;2.42;;
55989;SDS011;41875;55.806;38.082;2023-12-20T12:22:27;6.35;;;2.53;;
55989;SDS011;41875;55.806;38.082;2023-12-20T12:28:57;6.43;;;2.53;;
55989;SDS011;41875;55.806;38.082;2023-12-20T12:32:16;3.78;;;1.70;;
55989;SDS011;41875;55.806;38.082;2023-12-20T18:07:04;5.20;;;1.20;;
55989;SDS011;41875;55.806;38.082;2023-12-20T18:10:31;3.13;;;1.33;;
55989;SDS011;41875;55.806;38.082;2023-12-20T18:13:58;2.15;;;1.10;;
55989;SDS011;41875;55.806;38.082;2023-12-20T18:17:10;3.28;;;1.45;;
55989;SDS011;41875;55.806;38.082;2023-12-20T18:20:19;2.80;;;1.17;;
55989;SDS011;41875;55.806;38.082;2023-12-20T18:23:54;3.58;;;1.25;;
55989;SDS011;41875;55.806;38.082;2023-12-20T18:27:28;1.70;;;0.90;;
55989;SDS011;41875;55.806;38.082;2023-12-20T18:33:59;2.47;;;1.10;;
55989;SDS011;41875;55.806;38.082;2023-12-20T18:37:23;1.55;;;0.88;;
55989;SDS011;41875;55.806;38.082;2023-12-20T18:44:50;5.90;;;1.27;;
55989;SDS011;41875;55.806;38.082;2023-12-20T18:48:07;4.28;;;1.23;;
55989;SDS011;41875;55.806;38.082;2023-12-20T18:51:39;3.88;;;1.27;;
55989;SDS011;41875;55.806;38.082;2023-12-20T18:55:02;3.10;;;1.10;;
55989;SDS011;41875;55.806;38.082;2023-12-20T18:58:22;4.22;;;1.25;;
55989;SDS011;41875;55.806;38.082;2023-12-20T19:01:53;2.47;;;1.05;;
55989;SDS011;41875;55.806;38.082;2023-12-20T19:05:01;3.05;;;1.17;;
55989;SDS011;41875;55.806;38.082;2023-12-20T19:08:11;4.15;;;1.48;;
55989;SDS011;41875;55.806;38.082;2023-12-20T19:11:21;2.70;;;0.90;;
55989;SDS011;41875;55.806;38.082;2023-12-20T19:14:33;3.78;;;1.20;;
55989;SDS011;41875;55.806;38.082;2023-12-20T19:18:03;3.63;;;1.05;;
55989;SDS011;41875;55.806;38.082;2023-12-20T19:21:21;3.20;;;1.00;;
55989;SDS011;41875;55.806;38.082;2023-12-20T19:25:16;2.15;;;1.10;;
55989;SDS011;41875;55.806;38.082;2023-12-20T19:28:34;5.45;;;1.80;;
55989;SDS011;41875;55.806;38.082;2023-12-20T19:32:05;4.22;;;1.42;;
55989;SDS011;41875;55.806;38.082;2023-12-20T19:35:25;4.97;;;1.67;;
55989;SDS011;41875;55.806;38.082;2023-12-20T19:38:44;2.75;;;1.30;;
55989;SDS011;41875;55.806;38.082;2023-12-20T19:49:47;4.32;;;1.20;;
55989;SDS011;41875;55.806;38.082;2023-12-20T19:53:10;5.50;;;2.03;;
55989;SDS011;41875;55.806;38.082;2023-12-20T19:56:26;5.68;;;2.20;;
55989;SDS011;41875;55.806;38.082;2023-12-20T19:59:42;4.28;;;1.83;;
55989;SDS011;41875;55.806;38.082;2023-12-20T20:07:02;6.25;;;2.03;;
55989;SDS011;41875;55.806;38.082;2023-12-20T20:10:22;6.20;;;2.10;;
55989;SDS011;41875;55.806;38.082;2023-12-20T20:13:34;3.92;;;1.58;;
55989;SDS011;41875;55.806;38.082;2023-12-20T20:16:57;2.92;;;1.40;;
55989;SDS011;41875;55.806;38.082;2023-12-20T20:20:14;4.70;;;1.65;;
55989;SDS011;41875;55.806;38.082;2023-12-20T20:27:34;2.78;;;1.35;;
55989;SDS011;41875;55.806;38.082;2023-12-20T20:31:02;4.18;;;1.20;;
55989;SDS011;41875;55.806;38.082;2023-12-20T20:34:17;4.20;;;1.30;;
55989;SDS011;41875;55.806;38.082;2023-12-20T20:37:37;6.60;;;1.90;;
55989;SDS011;41875;55.806;38.082;2023-12-20T20:53:05;9.18;;;4.25;;
55989;SDS011;41875;55.806;38.082;2023-12-20T20:56:13;10.23;;;4.15;;
55989;SDS011;41875;55.806;38.082;2023-12-20T20:59:32;10.80;;;4.85;;
55989;SDS011;41875;55.806;38.082;2023-12-20T21:02:51;7.85;;;3.80;;
55989;SDS011;41875;55.806;38.082;2023-12-20T21:06:30;12.43;;;5.30;;
55989;SDS011;41875;55.806;38.082;2023-12-20T21:13:38;10.73;;;4.13;;
55989;SDS011;41875;55.806;38.082;2023-12-20T21:16:56;11.75;;;4.65;;
55989;SDS011;41875;55.806;38.082;2023-12-20T21:20:07;10.45;;;5.03;;
55989;SDS011;41875;55.806;38.082;2023-12-20T21:23:19;11.20;;;4.90;;
55989;SDS011;41875;55.806;38.082;2023-12-20T21:26:56;13.13;;;5.28;;
55989;SDS011;41875;55.806;38.082;2023-12-20T21:42:13;12.70;;;4.40;;
55989;SDS011;41875;55.806;38.082;2023-12-20T21:45:32;9.05;;;4.15;;
55989;SDS011;41875;55.806;38.082;2023-12-20T21:48:52;11.30;;;4.65;;
55989;SDS011;41875;55.806;38.082;2023-12-20T21:52:12;10.77;;;4.88;;
55989;SDS011;41875;55.806;38.082;2023-12-20T21:55:45;11.88;;;5.53;;
55989;SDS011;41875;55.806;38.082;2023-12-20T21:58:56;9.77;;;4.75;;
55989;SDS011;41875;55.806;38.082;2023-12-20T22:05:09;9.55;;;4.75;;
55989;SDS011;41875;55.806;38.082;2023-12-20T22:08:18;10.05;;;4.82;;
55989;SDS011;41875;55.806;38.082;2023-12-20T22:11:25;9.68;;;4.63;;
55989;SDS011;41875;55.806;38.082;2023-12-20T22:18:41;12.57;;;5.57;;
55989;SDS011;41875;55.806;38.082;2023-12-20T22:21:46;11.50;;;6.57;;
55989;SDS011;41875;55.806;38.082;2023-12-20T22:24:52;12.80;;;6.13;;
55989;SDS011;41875;55.806;38.082;2023-12-20T22:28:11;10.70;;;5.18;;
55989;SDS011;41875;55.806;38.082;2023-12-20T22:31:32;11.00;;;5.35;;
55989;SDS011;41875;55.806;38.082;2023-12-20T22:34:54;11.77;;;6.47;;
55989;SDS011;41875;55.806;38.082;2023-12-20T22:38:04;12.30;;;5.40;;
55989;SDS011;41875;55.806;38.082;2023-12-20T22:41:11;12.02;;;5.82;;
55989;SDS011;41875;55.806;38.082;2023-12-20T22:44:32;9.35;;;5.07;;
55989;SDS011;41875;55.806;38.082;2023-12-20T22:47:42;9.38;;;4.78;;
55989;SDS011;41875;55.806;38.082;2023-12-20T22:58:54;13.75;;;4.82;;
55989;SDS011;41875;55.806;38.082;2023-12-20T23:02:15;9.55;;;4.97;;
55989;SDS011;41875;55.806;38.082;2023-12-20T23:05:34;10.50;;;5.32;;
55989;SDS011;41875;55.806;38.082;2023-12-20T23:08:39;11.02;;;5.55;;
55989;SDS011;41875;55.806;38.082;2023-12-20T23:12:01;11.77;;;5.57;;
55989;SDS011;41875;55.806;38.082;2023-12-20T23:15:24;13.00;;;5.80;;
55989;SDS011;41875;55.806;38.082;2023-12-20T23:18:32;11.85;;;5.90;;
55989;SDS011;41875;55.806;38.082;2023-12-20T23:21:38;12.27;;;5.90;;
55989;SDS011;41875;55.806;38.082;2023-12-20T23:24:59;14.52;;;6.35;;
55989;SDS011;41875;55.806;38.082;2023-12-20T23:28:27;10.45;;;5.18;;
55989;SDS011;41875;55.806;38.082;2023-12-20T23:31:47;9.45;;;5.03;;
55989;SDS011;41875;55.806;38.082;2023-12-20T23:34:56;11.18;;;4.95;;
55989;SDS011;41875;55.806;38.082;2023-12-20T23:38:16;8.95;;;4.68;;
55989;SDS011;41875;55.806;38.082;2023-12-20T23:41:39;7.88;;;4.30;;
55989;SDS011;41875;55.806;38.082;2023-12-20T23:48:47;8.85;;;4.40;;
55989;SDS011;41875;55.806;38.082;2023-12-20T23:52:05;8.90;;;4.10;;
55989;SDS011;41875;55.806;38.082;2023-12-20T23:55:26;7.60;;;3.83;;
55989;SDS011;41875;55.806;38.082;2023-12-20T23:58:30;8.07;;;4.07;;
